Portada
METAR-TAF:

METAR-TAF

Aeroports :

Phnom Penh, Cambodja

latitud: 11-33N, longitud: 104-51E, altitud: 10 m

Observació

L'informe es va fer fa 18 minuts, a les 03:30 UTC
Vent 9 kt del Nord-Est, variant entre Nord i Est/Nord-Est
Temperatura 29°C
Humitat 58%
Pressió 1012 hPa
Visibilitat 10 km o més
Escasses núvols a una alçada de 1700 ft

METAR: VDPP 210330Z 04009KT 010V070 9999 FEW017 29/20 Q1012

Hora: 10:48 (03:48 UTC)

Pronòstic

L'informe es va fer fa 4 hores i 48 minuts, a les 23:00 UTC
Pronòstic vàlid del 21 a les 00 UTC al 21 a les 18 UTC
Vent 7 kt del Nord-Est
Visibilitat 10 km o més
Núvols disperses a una alçada de 1700 ft

TAF: VDPP 202300Z 2100/2118 05007KT 9999 SCT017

Observacions i pronòstics meteorològics de més de 4000 aeroports (METAR i TAF).

Les estacions disponibles són els punts grocs i vermells al mapa.

Posi el ratolí al punt desitjat per veure el nom de l'estació.

Feu clic per veure les observacions i els pronòstics meteorològics.

Per canviar el mapa: feu clic els botons verds amb una creu de color negre per apropar; al botó verd amb un guió per allunyar la imatge; o en les fletxes verdes per a mapes adjacents.


METAR-TAF: